This is the latest recevied weather packets stored in our database for station/object EA8DNP-14. If no packets are shown the sender has not sent any weather packets the latest 10 day(s).
| Time | Temp. | Humidity | Pressure | Rain* | Wind** | Luminosity | Snow |
|---|---|---|---|---|---|---|---|
| 1787831412 | 180.56° C | 100% | - | - | - | - | - |
| 1787830486 | 15.56° C | 84% | 905 hPa | - | - | - | - |
| 1787829586 | 15.56° C | 83% | 905.2 hPa | - | - | - | - |
| 1787828686 | 16.67° C | 82% | 905.1 hPa | - | - | - | - |
| 1787827786 | 18.89° C | 77% | 905 hPa | - | - | - | - |
| 1787826885 | 20.56° C | 75% | 904.9 hPa | - | - | - | - |
| 1787825985 | 18.33° C | 80% | 904.9 hPa | - | - | - | - |
| 1787825085 | 16.11° C | 81% | 904.9 hPa | - | - | - | - |
| 1787824185 | 15° C | 81% | 905 hPa | - | - | - | - |
| 1787823285 | 15° C | 80% | 904.8 hPa | - | - | - | - |
| 1787822385 | 15° C | 78% | 904.6 hPa | - | - | - | - |
| 1787821485 | 15° C | 77% | 904.4 hPa | - | - | - | - |
| 1787820586 | 15° C | 76% | 904.3 hPa | - | - | - | - |
| 1787819684 | 15.56° C | 74% | 904.1 hPa | - | - | - | - |
| 1787818784 | 15.56° C | 71% | 904.1 hPa | - | - | - | - |
| 1787817884 | 16.67° C | 68% | 904.1 hPa | - | - | - | - |
| 1787816984 | 16.11° C | 68% | 903.9 hPa | - | - | - | - |
| 1787816084 | 15° C | 69% | 903.8 hPa | - | - | - | - |
| 1787815184 | 15° C | 69% | 903.5 hPa | - | - | - | - |
| 1787814284 | 12.78° C | 71% | 903.3 hPa | - | - | - | - |
| 1787813384 | 12.22° C | 70% | 903.2 hPa | - | - | - | - |
| 1787812484 | 12.22° C | 70% | 903.1 hPa | - | - | - | - |
| 1787811583 | 12.78° C | 69% | 903 hPa | - | - | - | - |
| 1787810683 | 12.22° C | 68% | 902.8 hPa | - | - | - | - |
| 1787809783 | 12.22° C | 67% | 902.7 hPa | - | - | - | - |
* Rain since midnight (hover to see other rain measurements)
** Current wind speed in m/s (hover to see current wind gust speed)